Airfield :
LOGIN :

Register | Disclaimer

   EN    FR    IT 

 










Legend :    VFR   Marginal VFR   IFR   Intensive IFR   Very Intensive IFR
Visi :
Ceiling :
>= 8 km
>= 3000ft
5 to 8 km
1000 to 3000 ft
1500m to 5 km
500 to 1000 ft
800 to 1500m
200 to 500 ft
< 800m
< 200 ft
Symbols :   Thunderstorms  Fog  Heavy snow  Heavy precipitations  Wind > 20 kt
SIGMETs :     Misc.  Thunderstorms  Icing  Turbulence  Mountain Waves  Volcanic Ashes






- Airport Elevation : 1682 ft
- IATA code : VIT


LEVT - Vitoria Gasteiz

CURRENT METAR :
  • 210230Z VRB02KT 9999 SCT040 05/05 Q1017

EXPIRED METARs :
  • 210200Z 00000KT 9999 SCT030 06/05 Q1017
  • 210130Z 29001KT 9999 SCT030 06/05 Q1017
  • 210100Z 02001KT 9999 SCT030 06/06 Q1017
  • 210030Z VRB01KT 9999 SCT030 06/06 Q1017
  • 210000Z 20003KT 170V230 9999 SCT030 06/05 Q1016

TAF TAF LEVT
Valid from the 21 at 00:00 until the 22 at 00:00 UTC


202300Z 2100/2124 VRB05KT 9999 FEW010 SCT020 TX14/2115Z TN03/2107Z
PROB40
TEMPO 2100/2109 3000 BR
PROB40
TEMPO 2103/2109 1500 BCFG BKN005
PROB30
TEMPO 2103/2109 0350 FG VV001



MET'MAP, your aeronautical weather chart ! - Copyright ORBIFLY December 2007 - Disclaimer

ORBIFLY MET'MAP TEAM :

Programming & Development : Alexandra Zaïnal
Concept & Development : Baudouin d'Aumeries
Co-Development & Prog : Marc-Olivier Méhu
Technical & hardware support : Manuel Goepfert

Contact : metmap@orbifly.com




SOURCES & CREDITS :

   NOAA